W7VEE-2 Weather Reports


Display with metric or nautical units.
time (UTC)temp
F
wind
direction
speed
MPH
gust
MPH
rain 1hr
in
rain 24hr
in
rain mn
in
humidity
%
barometer
mb
20210509215252 63 327 2.0 8.0 0.00 0.00 0.00
20210509214108 63 327 2.0 8.0 0.00 0.00 0.00
20210509214029 62 317 4.0 10.0 0.00 0.00 0.00
20210509212843 62 317 4.0 10.0 0.00 0.00 0.00
20210509212054 55 312 6.0 11.0 0.00 0.00 0.00
20210509210622 54 302 6.0 7.0 0.00 0.00 0.00
20210509210548 54 302 6.0 7.0 0.00 0.00 0.00
20210509210353 55 312 6.0 11.0 0.00 0.00 0.00
20210509205828 57 291 3.0 6.0 0.00 0.00 0.00
20210509205756 57 291 3.0 6.0 0.00 0.00 0.00
20210509205626 57 291 3.0 6.0 0.00 0.00 0.00
20210509205128 54 302 6.0 7.0 0.00 0.00 0.00
20210509204023 58 0 3.0 6.0 0.00 0.00 0.00
20210509203952 58 0 3.0 6.0 0.00 0.00 0.00
20210509203903 57 291 3.0 6.0 0.00 0.00 0.00
20210509203058 57 261 1.0 4.0 0.00 0.00 0.00
20210509202639 58 0 3.0 6.0 0.00 0.00 0.00
20210509201413 57 261 1.0 4.0 0.00 0.00 0.00
20210509200454 56 355 0.0 2.0 0.00 0.00 0.00
20210509200401 56 355 0.0 2.0 0.00 0.00 0.00
20210509194923 56 355 0.0 2.0 0.00 0.00 0.00
20210509193658 55 320 7.0 14.0 0.00 0.00 0.00
20210509192238 55 246 4.0 7.0 0.00 0.00 0.00
20210509191208 55 246 4.0 7.0 0.00 0.00 0.00
20210509191158 58 189 1.0 11.0 0.00 0.00 0.00
20210509185943 58 189 1.0 11.0 0.00 0.00 0.00
20210509184117 64 294 2.0 5.0 0.00 0.00 0.00
20210509184030 64 294 2.0 5.0 0.00 0.00 0.00
20210509182229 64 294 2.0 5.0 0.00 0.00 0.00
20210509181304 62 80 8.0 11.0 0.00 0.00 0.00
20210509181121 62 80 8.0 11.0 0.00 0.00 0.00
20210509175848 58 318 5.0 9.0 0.00 0.00 0.00
20210509175741 58 318 5.0 9.0 0.00 0.00 0.00
20210509175739 62 80 8.0 11.0 0.00 0.00 0.00
20210509175027 58 318 0.0 7.0 0.00 0.00 0.00
20210509174956 58 318 0.0 7.0 0.00 0.00 0.00
20210509174514 58 318 5.0 9.0 0.00 0.00 0.00
20210509173612 56 342 1.0 6.0 0.00 0.00 0.00
20210509173520 56 342 1.0 6.0 0.00 0.00 0.00
20210509173249 58 318 0.0 7.0 0.00 0.00 0.00
20210509172024 56 342 1.0 6.0 0.00 0.00 0.00
20210509171955 54 299 2.0 5.0 0.00 0.00 0.00
20210509171924 54 299 2.0 5.0 0.00 0.00 0.00
20210509170759 54 299 2.0 5.0 0.00 0.00 0.00
20210509165919 52 322 2.0 5.0 0.00 0.00 0.00
20210509164309 52 322 2.0 5.0 0.00 0.00 0.00
20210509163320 51 282 2.0 5.0 0.00 0.00 0.00
20210509161819 51 282 2.0 5.0 0.00 0.00 0.00
20210509150433 43 337 0.0 0.0 0.00 0.00 0.00
20210509145521 41 243 1.0 2.0 0.00 0.00 0.00
20210509145307 41 243 1.0 2.0 0.00 0.00 0.00
20210509145124 43 337 0.0 0.0 0.00 0.00 0.00
20210509143857 41 243 1.0 2.0 0.00 0.00 0.00
20210509143752 40 337 0.0 1.0 0.00 0.00 0.00
20210509142632 40 337 0.0 1.0 0.00 0.00 0.00
20210509142316 40 337 0.0 1.0 0.00 0.00 0.00
20210509141520 39 22 0.0 0.0 0.00 0.00 0.00
20210509141407 40 337 0.0 1.0 0.00 0.00 0.00
20210509140143 39 22 0.0 0.0 0.00 0.00 0.00
20210509140103 38 319 0.0 0.0 0.00 0.00 0.00
20210509140024 38 319 0.0 0.0 0.00 0.00 0.00
20210509134915 38 319 0.0 0.0 0.00 0.00 0.00
20210509133432 36 60 0.0 0.0 0.00 0.00 0.00
20210509133340 36 60 0.0 0.0 0.00 0.00 0.00
20210509132426 36 60 0.0 0.0 0.00 0.00 0.00
20210509132308 35 75 0.0 0.0 0.00 0.00 0.00
20210509131236 35 252 0.0 0.0 0.00 0.00 0.00
20210509131201 35 252 0.0 0.0 0.00 0.00 0.00
20210509130612 34 337 0.0 0.0 0.00 0.00 0.00
20210509125936 35 252 0.0 0.0 0.00 0.00 0.00
20210509124708 34 337 0.0 0.0 0.00 0.00 0.00
20210509123545 34 168 0.0 0.0 0.00 0.00 0.00
20210509123506 34 168 0.0 0.0 0.00 0.00 0.00
20210509123446 34 337 0.0 0.0 0.00 0.00 0.00
20210509122346 33 337 0.0 3.0 0.00 0.00 0.00
20210509122220 34 168 0.0 0.0 0.00 0.00 0.00
20210509120956 33 337 0.0 3.0 0.00 0.00 0.00
20210509120924 33 303 0.0 1.0 0.00 0.00 0.00
20210509120847 33 303 0.0 1.0 0.00 0.00 0.00
20210509120227 33 337 0.0 0.0 0.00 0.00 0.00
20210509120123 33 337 0.0 0.0 0.00 0.00 0.00
20210509115730 33 303 0.0 1.0 0.00 0.00 0.00
20210509114506 33 123 0.0 0.0 0.00 0.00 0.00
20210509114320 33 123 0.0 0.0 0.00 0.00 0.00
20210509113240 33 123 0.0 0.0 0.00 0.00 0.00
20210509113218 32 337 0.0 0.0 0.00 0.00 0.00
20210509113123 32 337 0.0 0.0 0.00 0.00 0.00
20210509112016 32 337 0.0 0.0 0.00 0.00 0.00
20210509095521 29 264 0.0 0.0 0.00 0.00 0.00
20210509094056 28 337 0.0 0.0 0.00 0.00 0.00
20210509092830 28 337 0.0 0.0 0.00 0.00 0.00
20210509091821 28 337 0.0 0.0 0.00 0.00 0.00
20210509091723 28 337 0.0 0.0 0.00 0.00 0.00
20210509090453 27 247 0.0 1.0 0.00 0.00 0.00
20210509090340 28 337 0.0 0.0 0.00 0.00 0.00
20210509085118 27 334 0.0 0.0 0.00 0.00 0.00
20210509085115 27 247 0.0 1.0 0.00 0.00 0.00
20210509083850 27 334 0.0 0.0 0.00 0.00 0.00
20210509082715 29 337 0.0 0.0 0.00 0.00 0.00
20210509081434 29 345 0.0 1.0 0.00 0.00 0.00
20210509081402 29 345 0.0 1.0 0.00 0.00 0.00
20210509081400 29 337 0.0 0.0 0.00 0.00 0.00
20210509080237 30 337 1.0 2.0 0.00 0.00 0.00
20210509080204 30 337 1.0 2.0 0.00 0.00 0.00
20210509080136 29 345 0.0 1.0 0.00 0.00 0.00
20210509074910 30 337 1.0 2.0 0.00 0.00 0.00
20210509074029 31 0 0.0 1.0 0.00 0.00 0.00
20210509072421 31 0 0.0 1.0 0.00 0.00 0.00
20210509071536 32 22 0.0 0.0 0.00 0.00 0.00
20210509070023 33 312 0.0 0.0 0.00 0.00 0.00
20210509065932 33 312 0.0 0.0 0.00 0.00 0.00
20210509064816 35 337 0.0 1.0 0.00 0.00 0.00
20210509064708 35 337 0.0 1.0 0.00 0.00 0.00
20210509064706 33 312 0.0 0.0 0.00 0.00 0.00
20210509063441 35 337 0.0 1.0 0.00 0.00 0.00
20210509062522 38 337 1.0 2.0 0.00 0.00 0.00
20210509055726 38 337 1.0 2.0 0.00 0.00 0.00
20210509022337 53 225 13.0 21.0 0.00 0.00 0.00
20210509021513 54 225 16.0 20.0 0.00 0.00 0.00
20210509021356 53 225 13.0 21.0 0.00 0.00 0.00
20210509020131 54 225 16.0 20.0 0.00 0.00 0.00